Time;durP1;ratioP1;P1;durP2;ratioP2;P2;SDS_P1;SDS_P2;PMS_P1;PMS_P2;Temp;Humidity;BMP_temperature;BMP_pressure;BME280_temperature;BME280_humidity;BME280_pressure;Samples;Min_cycle;Max_cycle;Signal;HPM_P1;HPM_P2
2022/10/30 00:00:36;;;;;;;11.73;5.93;;;19.50;99.90;;;;;;7409160;79;26327;-60
2022/10/30 00:10:38;;;;;;;13.30;6.57;;;19.50;99.90;;;;;;7394482;79;27486;-60
2022/10/30 00:20:41;;;;;;;10.27;5.57;;;19.50;99.90;;;;;;7394210;79;26404;-61
2022/10/30 00:30:43;;;;;;;9.17;5.30;;;19.50;99.90;;;;;;7385212;79;26405;-61
2022/10/30 00:40:46;;;;;;;10.37;4.87;;;19.50;99.90;;;;;;7398491;79;26334;-61
2022/10/30 00:50:48;;;;;;;10.47;5.00;;;19.50;99.90;;;;;;7412431;79;26427;-60
2022/10/30 01:00:54;;;;;;;14.00;5.80;;;19.50;99.90;;;;;;7404234;78;26391;-60
2022/10/30 01:10:59;;;;;;;11.67;4.63;;;19.50;99.90;;;;;;7379796;79;26381;-60
2022/10/30 01:21:10;;;;;;;10.37;4.70;;;19.40;99.90;;;;;;7403544;79;26284;-60
2022/10/30 01:31:25;;;;;;;11.77;4.93;;;19.40;99.90;;;;;;7419977;79;26308;-61
2022/10/30 01:41:27;;;;;;;9.33;4.57;;;19.30;99.90;;;;;;7398942;79;26289;-59
2022/10/30 01:51:45;;;;;;;14.73;5.23;;;19.40;99.90;;;;;;7425507;79;26813;-61
2022/10/30 02:01:47;;;;;;;12.03;4.93;;;19.30;99.90;;;;;;7375454;79;26303;-61
2022/10/30 02:11:52;;;;;;;12.77;4.37;;;19.30;99.90;;;;;;7379975;79;26439;-61
2022/10/30 02:21:54;;;;;;;11.70;4.70;;;19.20;99.90;;;;;;7400904;79;26861;-59
2022/10/30 02:31:57;;;;;;;11.50;4.73;;;19.30;99.90;;;;;;7401950;79;26276;-61
2022/10/30 02:42:01;;;;;;;10.13;5.03;;;19.30;99.90;;;;;;7388107;79;26804;-61
2022/10/30 02:52:03;;;;;;;12.70;5.93;;;19.30;99.90;;;;;;7389781;79;26263;-61
2022/10/30 03:02:06;;;;;;;12.63;5.03;;;19.20;99.90;;;;;;7408537;79;26330;-61
2022/10/30 03:12:08;;;;;;;10.17;4.50;;;19.30;99.90;;;;;;7393780;79;27126;-60
2022/10/30 03:22:12;;;;;;;14.20;4.83;;;19.20;99.90;;;;;;7259568;81;26316;-59
2022/10/30 03:32:14;;;;;;;11.70;4.67;;;19.20;99.90;;;;;;7282916;80;26377;-60
2022/10/30 03:42:17;;;;;;;12.70;4.73;;;19.20;99.90;;;;;;7164640;81;26330;-59
2022/10/30 03:52:19;;;;;;;13.70;4.63;;;19.20;99.90;;;;;;7196262;81;26800;-59
2022/10/30 04:02:22;;;;;;;13.33;4.10;;;19.10;99.90;;;;;;7151723;81;26350;-60
2022/10/30 04:12:24;;;;;;;12.03;4.47;;;19.10;99.90;;;;;;7263345;80;26357;-59
2022/10/30 04:22:27;;;;;;;18.37;4.43;;;19.00;99.90;;;;;;7268327;80;26392;-60
2022/10/30 04:32:29;;;;;;;12.47;4.47;;;19.00;99.90;;;;;;7273352;80;26403;-59
2022/10/30 04:42:32;;;;;;;10.50;4.17;;;18.80;99.90;;;;;;7270646;80;26421;-59
2022/10/30 04:52:35;;;;;;;11.57;4.50;;;19.00;99.90;;;;;;7265977;80;26860;-60
2022/10/30 05:02:37;;;;;;;9.80;4.20;;;18.90;99.90;;;;;;7243088;80;26781;-59
2022/10/30 05:12:42;;;;;;;10.03;3.93;;;18.90;99.90;;;;;;7236151;81;26418;-59
2022/10/30 05:22:44;;;;;;;13.77;4.03;;;18.80;99.90;;;;;;7260522;81;26311;-61
2022/10/30 05:32:47;;;;;;;13.30;4.70;;;18.90;99.90;;;;;;7241770;81;26378;-61
2022/10/30 05:42:50;;;;;;;22.67;7.10;;;18.90;99.90;;;;;;7266883;81;26375;-61
2022/10/30 05:53:03;;;;;;;10.40;4.47;;;18.90;99.90;;;;;;7407466;79;26398;-62
2022/10/30 06:03:11;;;;;;;12.33;4.67;;;18.60;99.90;;;;;;7391253;79;26331;-62
2022/10/30 06:13:13;;;;;;;8.27;4.03;;;18.80;99.90;;;;;;7385026;79;26328;-63
2022/10/30 06:23:16;;;;;;;11.20;4.37;;;18.80;99.90;;;;;;7388546;79;26377;-60
2022/10/30 06:33:18;;;;;;;11.53;4.10;;;18.70;99.90;;;;;;7426069;79;26822;-62
2022/10/30 06:43:21;;;;;;;11.37;4.60;;;18.70;99.90;;;;;;7406984;79;26296;-60
2022/10/30 06:53:23;;;;;;;15.13;4.30;;;18.60;99.90;;;;;;7393082;80;26347;-59
2022/10/30 07:03:26;;;;;;;14.23;4.27;;;18.70;99.90;;;;;;7384062;79;26312;-58
2022/10/30 07:13:28;;;;;;;15.80;4.87;;;18.60;99.90;;;;;;7411826;79;26887;-61
2022/10/30 07:23:31;;;;;;;15.67;5.50;;;18.50;99.90;;;;;;7391491;79;26355;-59
2022/10/30 07:33:33;;;;;;;14.03;4.30;;;18.70;99.90;;;;;;7406530;79;26297;-59
2022/10/30 07:43:36;;;;;;;17.17;3.87;;;18.40;99.90;;;;;;7405531;79;26794;-62
2022/10/30 07:53:38;;;;;;;16.70;5.73;;;18.60;99.90;;;;;;7422784;79;26334;-62
2022/10/30 08:03:43;;;;;;;14.03;5.30;;;18.70;99.90;;;;;;7418703;79;26383;-60
2022/10/30 08:13:46;;;;;;;30.80;7.27;;;18.60;99.90;;;;;;7405592;79;26444;-61
2022/10/30 08:23:50;;;;;;;34.83;9.57;;;18.70;99.90;;;;;;7403643;79;26421;-59
2022/10/30 08:33:52;;;;;;;22.30;6.63;;;19.10;99.90;;;;;;7418775;79;26272;-61
2022/10/30 08:43:55;;;;;;;31.90;7.03;;;19.20;99.90;;;;;;7421166;79;26285;-62
2022/10/30 08:53:57;;;;;;;30.97;8.67;;;19.40;99.90;;;;;;7390267;79;26857;-60
2022/10/30 09:04:00;;;;;;;22.70;7.23;;;19.40;99.90;;;;;;7397733;79;26291;-60
2022/10/30 09:14:02;;;;;;;26.10;7.97;;;19.70;99.90;;;;;;7403115;79;26865;-61
2022/10/30 09:24:05;;;;;;;27.90;6.67;;;19.80;99.90;;;;;;7382549;79;26371;-60
2022/10/30 09:34:07;;;;;;;17.27;5.23;;;19.90;99.90;;;;;;7421211;79;26347;-60
2022/10/30 09:44:25;;;;;;;15.53;5.90;;;20.10;99.90;;;;;;7407860;79;26291;-61
2022/10/30 09:54:48;;;;;;;18.23;4.97;;;20.20;99.90;;;;;;7406092;79;26791;-61
2022/10/30 10:04:54;;;;;;;16.40;4.73;;;20.30;99.90;;;;;;7402906;78;26270;-61
2022/10/30 10:14:59;;;;;;;10.80;4.77;;;20.40;99.90;;;;;;7410922;79;26417;-60
2022/10/30 10:25:04;;;;;;;12.53;4.37;;;20.40;99.90;;;;;;7423553;79;26296;-61
2022/10/30 10:35:37;;;;;;;9.27;3.77;;;20.40;99.90;;;;;;7421505;79;26397;-60
2022/10/30 10:45:48;;;;;;;16.40;4.30;;;20.50;99.90;;;;;;7402563;79;26281;-61
2022/10/30 10:55:54;;;;;;;15.03;5.07;;;20.50;99.90;;;;;;7409939;79;26343;-60
2022/10/30 11:06:03;;;;;;;9.57;3.93;;;20.60;99.90;;;;;;7414217;79;26285;-60
2022/10/30 11:16:31;;;;;;;7.10;3.10;;;20.50;99.90;;;;;;7386909;79;26755;-59
2022/10/30 11:26:34;;;;;;;9.87;3.40;;;20.50;99.90;;;;;;7387269;79;26275;-59
2022/10/30 11:36:36;;;;;;;9.30;3.53;;;20.50;99.90;;;;;;7400202;79;26285;-60
2022/10/30 11:46:39;;;;;;;10.23;3.80;;;20.50;99.90;;;;;;7413288;79;26775;-62
2022/10/30 11:56:45;;;;;;;11.67;3.80;;;20.50;99.90;;;;;;7399209;79;26790;-61
2022/10/30 12:06:47;;;;;;;7.67;3.07;;;20.60;99.90;;;;;;7414562;79;26280;-59
2022/10/30 12:16:52;;;;;;;8.20;3.07;;;20.60;99.90;;;;;;7405378;79;26297;-61
2022/10/30 12:26:56;;;;;;;6.20;3.23;;;20.60;99.90;;;;;;7405732;79;26327;-60
2022/10/30 12:37:01;;;;;;;6.03;3.03;;;20.60;99.90;;;;;;7403344;79;26296;-60
2022/10/30 12:47:19;;;;;;;7.40;3.43;;;20.60;99.90;;;;;;7411513;79;27265;-59
2022/10/30 12:57:27;;;;;;;13.10;5.80;;;20.60;99.90;;;;;;7351396;79;26425;-58
2022/10/30 13:07:44;;;;;;;12.77;6.50;;;20.70;99.90;;;;;;7380878;79;27214;-60
2022/10/30 13:17:46;;;;;;;23.37;11.13;;;20.70;99.90;;;;;;7405956;79;26773;-60
2022/10/30 13:27:52;;;;;;;27.33;11.70;;;20.70;99.90;;;;;;7387968;79;26398;-60
2022/10/30 13:38:30;;;;;;;17.03;9.43;;;20.70;99.90;;;;;;7390846;79;26952;-57
2022/10/30 13:48:58;;;;;;;19.27;9.23;;;20.70;99.90;;;;;;7396907;79;26810;-59
2022/10/30 13:59:12;;;;;;;15.30;8.10;;;20.70;99.90;;;;;;7401734;79;26860;-60
2022/10/30 14:09:27;;;;;;;14.07;6.60;;;20.70;99.90;;;;;;7389159;79;26796;-58
2022/10/30 14:19:29;;;;;;;14.53;5.63;;;20.70;99.90;;;;;;7394140;79;26327;-60
2022/10/30 14:29:38;;;;;;;11.80;5.70;;;20.70;99.90;;;;;;7413412;79;26428;-60
2022/10/30 14:39:54;;;;;;;7.83;4.03;;;20.70;99.90;;;;;;7379996;79;26383;-61
2022/10/30 14:50:02;;;;;;;7.93;5.13;;;20.70;99.90;;;;;;7390900;79;26488;-61
2022/10/30 15:00:27;;;;;;;9.33;4.07;;;20.70;99.90;;;;;;7377923;79;26339;-62
2022/10/30 15:10:32;;;;;;;10.20;4.67;;;20.70;99.90;;;;;;7399169;80;26515;-58
2022/10/30 15:20:37;;;;;;;9.33;4.57;;;20.60;99.90;;;;;;7383891;79;26285;-60
2022/10/30 15:30:42;;;;;;;9.77;4.23;;;20.60;99.90;;;;;;7414279;79;26853;-58
2022/10/30 15:40:45;;;;;;;9.27;3.83;;;20.60;99.90;;;;;;7404721;79;26342;-62
2022/10/30 15:50:56;;;;;;;8.13;4.03;;;20.50;99.90;;;;;;7409967;79;26319;-59
2022/10/30 16:01:00;;;;;;;6.83;2.93;;;20.50;99.90;;;;;;7424034;79;26787;-62
2022/10/30 16:11:04;;;;;;;9.50;3.37;;;20.40;99.90;;;;;;7390414;79;26405;-60
2022/10/30 16:21:09;;;;;;;6.47;3.60;;;20.30;99.90;;;;;;7395977;79;26355;-60
2022/10/30 16:31:14;;;;;;;7.43;3.73;;;20.30;99.90;;;;;;7373468;79;26852;-61
2022/10/30 16:41:17;;;;;;;8.83;4.00;;;20.30;99.90;;;;;;7376682;79;26315;-57
2022/10/30 16:51:20;;;;;;;7.90;3.70;;;20.30;99.90;;;;;;7391941;79;26788;-62
2022/10/30 17:01:29;;;;;;;13.37;5.63;;;20.30;99.90;;;;;;7398677;79;26762;-58
2022/10/30 17:11:40;;;;;;;14.87;5.20;;;20.20;99.90;;;;;;7386944;79;26382;-59
2022/10/30 17:21:43;;;;;;;15.20;5.07;;;20.20;99.90;;;;;;7407571;79;26311;-59
2022/10/30 17:31:47;;;;;;;12.60;4.57;;;20.20;99.90;;;;;;7401883;79;26351;-61
2022/10/30 17:41:51;;;;;;;10.63;4.07;;;20.20;99.90;;;;;;7368346;79;26316;-59
2022/10/30 17:51:53;;;;;;;15.27;4.57;;;20.20;99.90;;;;;;7377415;79;26378;-59
2022/10/30 18:01:56;;;;;;;17.40;4.43;;;20.20;99.90;;;;;;7383739;79;26260;-60
2022/10/30 18:11:59;;;;;;;9.97;4.07;;;20.20;99.90;;;;;;7416999;79;26347;-60
2022/10/30 18:22:01;;;;;;;14.83;4.60;;;20.20;99.90;;;;;;7408146;79;26478;-60
2022/10/30 18:32:04;;;;;;;9.27;3.33;;;20.10;99.90;;;;;;7402516;79;26691;-60
2022/10/30 18:42:08;;;;;;;9.70;4.73;;;20.00;99.90;;;;;;7403505;79;26367;-60
2022/10/30 18:52:11;;;;;;;7.77;3.10;;;20.00;99.90;;;;;;7401466;79;27173;-59
2022/10/30 19:02:22;;;;;;;12.00;3.70;;;20.00;99.90;;;;;;7416976;79;26351;-60
2022/10/30 19:12:25;;;;;;;8.13;3.30;;;20.00;99.90;;;;;;7412360;79;26403;-60
2022/10/30 19:22:28;;;;;;;13.30;4.67;;;19.90;99.90;;;;;;7403948;79;26276;-60
2022/10/30 19:32:30;;;;;;;8.43;4.00;;;19.90;99.90;;;;;;7401482;79;26292;-61
2022/10/30 19:42:33;;;;;;;15.23;3.87;;;19.90;99.90;;;;;;7401810;79;26276;-59
2022/10/30 19:52:35;;;;;;;10.43;3.93;;;19.80;99.90;;;;;;7372628;79;26420;-61
2022/10/30 20:02:38;;;;;;;7.07;3.50;;;19.80;99.90;;;;;;7395798;79;26710;-59
2022/10/30 20:12:40;;;;;;;8.47;3.47;;;19.70;99.90;;;;;;7381560;79;26332;-58
2022/10/30 20:22:43;;;;;;;8.17;3.50;;;19.70;99.90;;;;;;7405605;79;26355;-60
2022/10/30 20:32:46;;;;;;;9.80;3.10;;;19.70;99.90;;;;;;7402666;79;26979;-58
2022/10/30 20:42:48;;;;;;;11.00;3.17;;;19.70;99.90;;;;;;7414015;79;27453;-61
2022/10/30 20:52:52;;;;;;;5.57;3.13;;;19.60;99.90;;;;;;7399554;79;26249;-59
2022/10/30 21:02:54;;;;;;;6.00;3.40;;;19.60;99.90;;;;;;7391038;79;26861;-61
2022/10/30 21:12:57;;;;;;;12.30;3.73;;;19.60;99.90;;;;;;7403881;79;26371;-60
2022/10/30 21:22:59;;;;;;;8.23;3.30;;;19.60;99.90;;;;;;7386944;79;26285;-61
2022/10/30 21:33:02;;;;;;;6.97;3.47;;;19.60;99.90;;;;;;7377594;79;26671;-59
2022/10/30 21:43:04;;;;;;;11.97;3.70;;;19.50;99.90;;;;;;7384932;79;26319;-59
2022/10/30 21:53:07;;;;;;;8.03;4.03;;;19.60;99.90;;;;;;7382353;79;26393;-61
2022/10/30 22:03:10;;;;;;;8.33;3.23;;;19.50;99.90;;;;;;7404393;79;26281;-61
2022/10/30 22:13:13;;;;;;;13.50;3.83;;;19.50;99.90;;;;;;7391468;79;26368;-62
2022/10/30 22:23:15;;;;;;;10.40;3.47;;;19.50;99.90;;;;;;7249070;80;54957;-60
2022/10/30 22:33:19;;;;;;;7.67;3.10;;;19.40;99.90;;;;;;7237503;80;27631;-60
2022/10/30 22:43:22;;;;;;;7.17;3.47;;;19.40;99.90;;;;;;7188677;80;26439;-61
2022/10/30 22:53:26;;;;;;;9.33;3.60;;;19.40;99.90;;;;;;7152859;82;26465;-61
2022/10/30 23:03:30;;;;;;;11.73;2.73;;;19.40;99.90;;;;;;7201461;80;26784;-60
2022/10/30 23:13:34;;;;;;;5.20;2.70;;;19.40;99.90;;;;;;7189116;80;26443;-60
2022/10/30 23:23:38;;;;;;;8.23;3.27;;;19.20;99.90;;;;;;7237923;80;26475;-60
2022/10/30 23:33:40;;;;;;;6.67;3.03;;;19.30;99.90;;;;;;7236796;81;27456;-61
2022/10/30 23:43:43;;;;;;;6.97;3.10;;;19.10;99.90;;;;;;7202443;80;26507;-59
2022/10/30 23:53:45;;;;;;;5.73;3.23;;;19.00;99.90;;;;;;7223282;80;27703;-60
